createdAt,value
2019-03-19T00:00:13.642Z,3.80
2019-03-19T00:02:43.560Z,3.27
2019-03-19T00:05:13.761Z,4.20
2019-03-19T00:07:42.898Z,4.45
2019-03-19T00:10:12.141Z,4.00
2019-03-19T00:12:41.273Z,4.30
2019-03-19T00:15:11.074Z,4.75
2019-03-19T00:17:40.235Z,4.20
2019-03-19T00:20:15.509Z,4.58
2019-03-19T00:22:44.649Z,4.15
2019-03-19T00:25:13.796Z,4.60
2019-03-19T00:27:42.840Z,4.55
2019-03-19T00:30:18.125Z,5.15
2019-03-19T00:32:47.179Z,5.40
2019-03-19T00:35:16.325Z,4.97
2019-03-19T00:37:45.434Z,5.10
2019-03-19T00:40:15.073Z,5.25
2019-03-19T00:42:44.229Z,4.75
2019-03-19T00:45:13.872Z,4.67
2019-03-19T00:47:43.024Z,5.33
2019-03-19T00:50:12.651Z,4.62
2019-03-19T00:52:41.764Z,4.33
2019-03-19T00:55:11.526Z,4.70
2019-03-19T00:57:40.631Z,4.30
2019-03-19T01:00:13.380Z,5.58
2019-03-19T01:02:42.554Z,4.90
2019-03-19T01:05:11.966Z,5.70
2019-03-19T01:07:41.104Z,4.83
2019-03-19T01:10:11.494Z,4.62
2019-03-19T01:12:40.647Z,4.58
2019-03-19T01:15:10.858Z,4.60
2019-03-19T01:17:41.101Z,4.65
2019-03-19T01:20:14.083Z,3.85
2019-03-19T01:22:44.369Z,4.03
2019-03-19T01:25:13.509Z,4.53
2019-03-19T01:27:42.635Z,4.08
2019-03-19T01:30:13.249Z,3.87
2019-03-19T01:32:42.472Z,4.10
2019-03-19T01:35:11.605Z,4.70
2019-03-19T01:37:40.766Z,4.95
2019-03-19T01:40:11.808Z,4.55
2019-03-19T01:42:40.936Z,4.92
2019-03-19T01:45:10.693Z,5.17
2019-03-19T01:47:39.761Z,4.87
2019-03-19T01:50:09.873Z,4.67
2019-03-19T01:52:39.035Z,5.55
2019-03-19T01:55:09.602Z,4.35
2019-03-19T01:57:38.845Z,4.80
2019-03-19T02:00:10.741Z,4.60
2019-03-19T02:02:40.037Z,4.83
2019-03-19T02:05:09.165Z,4.80
2019-03-19T02:07:38.291Z,5.37
2019-03-19T02:10:08.838Z,4.12
2019-03-19T02:12:37.933Z,4.22
2019-03-19T02:15:11.411Z,4.75
2019-03-19T02:17:40.593Z,4.55
2019-03-19T02:20:13.224Z,5.10
2019-03-19T02:22:42.331Z,4.80
2019-03-19T02:25:11.491Z,4.50
2019-03-19T02:27:40.626Z,5.15
2019-03-19T02:30:16.167Z,5.17
2019-03-19T02:32:45.362Z,4.42
2019-03-19T02:35:14.566Z,5.25
2019-03-19T02:37:43.675Z,4.33
2019-03-19T02:40:13.446Z,4.62
2019-03-19T02:42:42.574Z,3.67
2019-03-19T02:45:12.127Z,4.20
2019-03-19T02:47:41.326Z,4.72
2019-03-19T02:50:11.345Z,4.72
2019-03-19T02:52:40.523Z,3.85
2019-03-19T02:55:10.705Z,4.30
2019-03-19T02:57:39.869Z,3.40
2019-03-19T03:00:12.435Z,4.72
2019-03-19T03:02:41.679Z,3.33
2019-03-19T03:05:14.430Z,4.10
2019-03-19T03:07:43.670Z,3.37
2019-03-19T03:10:13.124Z,3.77
2019-03-19T03:12:42.296Z,3.58
2019-03-19T03:15:12.018Z,3.30
2019-03-19T03:17:41.116Z,3.83
2019-03-19T03:20:11.145Z,3.35
2019-03-19T03:22:40.283Z,4.42
2019-03-19T03:25:10.317Z,3.70
2019-03-19T03:27:39.459Z,3.45
2019-03-19T03:30:13.344Z,3.80
2019-03-19T03:32:42.532Z,3.52
2019-03-19T03:35:11.734Z,3.25
2019-03-19T03:37:40.882Z,3.05
2019-03-19T03:40:19.536Z,3.25
2019-03-19T03:42:48.671Z,3.75
2019-03-19T03:45:18.372Z,2.75
2019-03-19T03:47:47.584Z,3.47
2019-03-19T03:50:18.205Z,3.67
2019-03-19T03:52:47.332Z,3.05
2019-03-19T03:55:17.063Z,3.37
2019-03-19T03:57:46.219Z,3.27
2019-03-19T04:00:16.845Z,2.72
2019-03-19T04:02:45.994Z,2.47
2019-03-19T04:05:15.147Z,2.83
2019-03-19T04:07:44.259Z,2.77
2019-03-19T04:10:14.874Z,2.62
2019-03-19T04:12:44.013Z,3.20
2019-03-19T04:15:14.682Z,2.98
2019-03-19T04:17:43.815Z,2.83
2019-03-19T04:20:13.459Z,2.80
2019-03-19T04:22:42.579Z,3.47
2019-03-19T04:25:13.111Z,4.50
2019-03-19T04:27:42.226Z,2.85
2019-03-19T04:30:15.542Z,3.77
2019-03-19T04:32:44.680Z,3.25
2019-03-19T04:35:13.835Z,4.00
2019-03-19T04:37:42.967Z,2.37
2019-03-19T04:40:13.020Z,2.92
2019-03-19T04:42:43.816Z,3.83
2019-03-19T04:45:13.573Z,3.10
2019-03-19T04:47:44.840Z,3.80
2019-03-19T04:50:14.449Z,3.17
2019-03-19T04:52:43.614Z,3.02
2019-03-19T04:55:13.221Z,3.52
2019-03-19T04:57:42.347Z,3.40
2019-03-19T05:00:16.255Z,2.70
2019-03-19T05:02:45.294Z,2.15
2019-03-19T05:05:14.457Z,3.12
2019-03-19T05:07:43.572Z,2.52
2019-03-19T05:10:19.609Z,2.62
2019-03-19T05:12:48.812Z,3.30
2019-03-19T05:15:17.948Z,2.72
2019-03-19T05:17:47.033Z,3.80
2019-03-19T05:20:16.476Z,5.20
2019-03-19T05:22:45.610Z,3.80
2019-03-19T05:25:14.752Z,3.08
2019-03-19T05:27:43.894Z,3.10
2019-03-19T05:30:14.551Z,3.70
2019-03-19T05:32:43.705Z,3.50
2019-03-19T05:35:12.856Z,4.17
2019-03-19T05:37:42.015Z,3.05
2019-03-19T05:40:12.629Z,3.50
2019-03-19T05:42:41.771Z,2.75
2019-03-19T05:45:12.415Z,3.10
2019-03-19T05:47:41.520Z,3.25
2019-03-19T05:50:11.675Z,2.85
2019-03-19T05:52:41.876Z,2.83
2019-03-19T05:55:11.009Z,3.40
2019-03-19T05:57:48.700Z,2.83
2019-03-19T06:00:14.837Z,2.83
2019-03-19T06:02:43.986Z,3.27
2019-03-19T06:05:13.161Z,3.17
2019-03-19T06:07:42.304Z,3.00
2019-03-19T06:10:12.978Z,2.65
2019-03-19T06:12:42.149Z,2.87
2019-03-19T06:15:12.731Z,2.58
2019-03-19T06:17:41.898Z,3.33
2019-03-19T06:20:17.343Z,2.40
2019-03-19T06:22:46.492Z,3.22
2019-03-19T06:25:15.626Z,2.85
2019-03-19T06:27:44.743Z,2.75
2019-03-19T06:30:18.276Z,3.00
2019-03-19T06:32:47.439Z,2.72
2019-03-19T06:35:16.576Z,3.22
2019-03-19T06:37:45.747Z,2.50
2019-03-19T06:40:15.291Z,2.87
2019-03-19T06:42:44.430Z,3.05
2019-03-19T06:45:14.389Z,2.25
2019-03-19T06:47:43.502Z,2.87
2019-03-19T06:50:18.657Z,3.05
2019-03-19T06:52:47.841Z,2.98
2019-03-19T06:55:17.476Z,3.33
2019-03-19T06:57:46.641Z,3.05
2019-03-19T07:00:19.028Z,3.58
2019-03-19T07:02:48.201Z,2.87
2019-03-19T07:05:18.031Z,2.70
2019-03-19T07:07:47.171Z,2.80
2019-03-19T07:10:17.761Z,2.70
2019-03-19T07:12:46.926Z,2.87
2019-03-19T07:15:19.105Z,2.90
2019-03-19T07:17:48.275Z,3.02
2019-03-19T07:20:19.374Z,2.95
2019-03-19T07:22:48.579Z,2.70
2019-03-19T07:25:17.737Z,3.35
2019-03-19T07:27:46.849Z,3.08
2019-03-19T07:30:23.196Z,3.12
2019-03-19T07:32:52.367Z,2.98
2019-03-19T07:35:21.472Z,2.52
2019-03-19T07:37:50.637Z,2.60
2019-03-19T07:40:19.770Z,3.87
2019-03-19T07:42:48.905Z,3.27
2019-03-19T07:45:18.750Z,3.12
2019-03-19T07:47:47.882Z,3.00
2019-03-19T07:50:17.545Z,3.08
2019-03-19T07:52:46.687Z,2.98
2019-03-19T07:55:15.825Z,3.10
2019-03-19T07:57:44.966Z,2.50
2019-03-19T08:00:15.591Z,2.80
2019-03-19T08:02:44.902Z,3.15
2019-03-19T08:05:14.230Z,2.35
2019-03-19T08:07:43.338Z,3.98
2019-03-19T08:10:15.954Z,3.25
2019-03-19T08:12:45.089Z,3.35
2019-03-19T08:15:17.945Z,2.58
2019-03-19T08:17:47.141Z,3.30
2019-03-19T08:20:16.617Z,3.20
2019-03-19T08:22:45.731Z,2.72
2019-03-19T08:25:15.192Z,3.33
2019-03-19T08:27:44.402Z,3.12
2019-03-19T08:30:15.022Z,3.37
2019-03-19T08:32:44.160Z,4.35
2019-03-19T08:35:13.289Z,2.60
2019-03-19T08:37:42.433Z,2.70
2019-03-19T08:40:14.672Z,2.83
2019-03-19T08:42:43.923Z,4.10
2019-03-19T08:45:25.890Z,3.80
2019-03-19T08:47:55.057Z,3.90
2019-03-19T08:50:24.180Z,3.17
2019-03-19T08:52:55.214Z,3.10
2019-03-19T08:55:24.105Z,3.37
2019-03-19T08:57:54.220Z,2.27
2019-03-19T09:00:25.070Z,3.33
2019-03-19T09:02:54.203Z,1.80
2019-03-19T09:05:23.348Z,2.65
2019-03-19T09:07:52.489Z,2.52
2019-03-19T09:10:21.645Z,2.98
2019-03-19T09:12:50.826Z,3.02
2019-03-19T09:15:20.793Z,2.77
2019-03-19T09:17:49.979Z,2.25
2019-03-19T09:20:19.113Z,4.12
2019-03-19T09:22:48.277Z,3.75
2019-03-19T09:25:17.390Z,6.10
2019-03-19T09:27:46.553Z,6.65
2019-03-19T09:30:19.050Z,4.50
2019-03-19T09:32:48.278Z,4.53
2019-03-19T09:35:17.449Z,2.75
2019-03-19T09:37:57.724Z,4.00
2019-03-19T09:40:18.798Z,2.58
2019-03-19T09:42:47.990Z,3.80
2019-03-19T09:45:17.296Z,2.92
2019-03-19T09:47:46.755Z,3.17
2019-03-19T09:50:16.313Z,3.05
2019-03-19T09:52:45.463Z,3.22
2019-03-19T09:55:14.649Z,3.60
2019-03-19T09:57:43.848Z,3.30
2019-03-19T10:00:14.491Z,2.85
2019-03-19T10:02:43.632Z,2.22
2019-03-19T10:05:12.769Z,2.35
2019-03-19T10:07:41.933Z,2.47
2019-03-19T10:10:17.636Z,2.87
2019-03-19T10:12:47.751Z,2.92
2019-03-19T10:15:16.890Z,2.95
2019-03-19T10:17:46.098Z,3.55
2019-03-19T10:20:17.838Z,2.52
2019-03-19T10:22:46.789Z,2.85
2019-03-19T10:25:16.591Z,2.42
2019-03-19T10:27:45.729Z,2.55
2019-03-19T10:30:21.361Z,3.12
2019-03-19T10:32:50.456Z,2.70
2019-03-19T10:35:20.693Z,2.67
2019-03-19T10:37:49.809Z,2.20
2019-03-19T10:40:19.429Z,2.65
2019-03-19T10:42:48.636Z,2.15
2019-03-19T10:45:20.305Z,2.37
2019-03-19T10:47:49.524Z,2.33
2019-03-19T10:50:19.470Z,1.90
2019-03-19T10:52:48.574Z,1.92
2019-03-19T10:55:17.847Z,2.25
2019-03-19T10:57:46.887Z,1.92
2019-03-19T11:00:17.222Z,1.98
2019-03-19T11:02:46.385Z,1.50
2019-03-19T11:05:15.580Z,1.25
2019-03-19T11:07:44.800Z,1.45
2019-03-19T11:10:14.700Z,1.62
2019-03-19T11:12:44.911Z,1.75
2019-03-19T11:15:17.551Z,2.05
2019-03-19T11:17:46.686Z,1.57
2019-03-19T11:20:17.265Z,1.65
2019-03-19T11:22:46.590Z,1.52
2019-03-19T11:25:16.518Z,1.15
2019-03-19T11:27:45.676Z,0.90
2019-03-19T11:30:16.371Z,1.20
2019-03-19T11:32:45.549Z,1.12
2019-03-19T11:35:14.904Z,1.77
2019-03-19T11:37:44.101Z,1.15
2019-03-19T11:40:14.046Z,1.30
2019-03-19T11:42:43.277Z,1.60
2019-03-19T11:45:13.587Z,1.52
2019-03-19T11:47:42.809Z,1.30
2019-03-19T11:50:13.499Z,2.30
2019-03-19T11:52:42.612Z,2.58
2019-03-19T11:55:12.772Z,2.10
2019-03-19T11:57:41.931Z,1.55
2019-03-19T12:00:12.681Z,1.72
2019-03-19T12:02:41.805Z,2.27
2019-03-19T12:05:11.041Z,3.00
2019-03-19T12:07:40.205Z,2.15
2019-03-19T12:10:09.540Z,1.90
2019-03-19T12:12:38.725Z,2.45
2019-03-19T12:15:08.724Z,1.92
2019-03-19T12:17:37.946Z,2.02
2019-03-19T12:20:08.540Z,1.77
2019-03-19T12:22:37.774Z,1.92
2019-03-19T12:25:07.894Z,2.00
2019-03-19T12:27:37.158Z,2.65
2019-03-19T12:30:22.607Z,2.33
2019-03-19T12:32:49.767Z,1.92
2019-03-19T12:35:19.279Z,2.47
2019-03-19T12:37:48.425Z,2.45
2019-03-19T12:40:18.175Z,2.92
2019-03-19T12:42:48.294Z,2.98
2019-03-19T12:45:18.002Z,2.80
2019-03-19T12:47:47.139Z,2.10
2019-03-19T12:50:19.878Z,2.02
2019-03-19T12:52:49.961Z,2.20
2019-03-19T12:55:19.127Z,2.05
2019-03-19T12:57:48.349Z,2.55
2019-03-19T13:00:18.373Z,1.82
2019-03-19T13:02:47.538Z,1.98
2019-03-19T13:05:16.742Z,1.85
2019-03-19T13:07:45.909Z,1.87
2019-03-19T13:10:16.588Z,1.80
2019-03-19T13:12:45.983Z,2.02
2019-03-19T13:15:19.005Z,2.58
2019-03-19T13:17:47.538Z,1.40
2019-03-19T13:20:17.249Z,1.70
2019-03-19T13:22:46.414Z,1.62
2019-03-19T13:25:19.665Z,2.12
2019-03-19T13:27:48.845Z,2.02
2019-03-19T13:30:31.791Z,1.70
2019-03-19T13:33:00.962Z,1.50
2019-03-19T13:35:30.196Z,2.22
2019-03-19T13:37:59.403Z,1.57
2019-03-19T13:40:28.522Z,1.90
2019-03-19T13:42:57.750Z,2.05
2019-03-19T13:45:26.942Z,1.47
2019-03-19T13:47:56.101Z,1.50
2019-03-19T13:50:25.232Z,1.40
2019-03-19T13:52:54.366Z,1.70
2019-03-19T13:55:23.940Z,1.45
2019-03-19T13:57:53.154Z,2.20
2019-03-19T14:00:22.296Z,1.92
2019-03-19T14:02:51.338Z,2.05
2019-03-19T14:05:21.584Z,1.95
2019-03-19T14:07:50.684Z,1.95
2019-03-19T14:10:20.212Z,2.65
2019-03-19T14:12:49.447Z,1.95
2019-03-19T14:15:22.431Z,4.45
2019-03-19T14:17:51.752Z,4.55
2019-03-19T14:20:20.945Z,2.62
2019-03-19T14:22:50.102Z,1.85
2019-03-19T14:25:19.300Z,1.37
2019-03-19T14:27:48.462Z,1.47
2019-03-19T14:30:19.034Z,1.75
2019-03-19T14:32:48.203Z,4.10
2019-03-19T14:35:17.899Z,1.60
2019-03-19T14:37:49.800Z,1.72
2019-03-19T14:40:24.477Z,2.05
2019-03-19T14:42:58.029Z,2.72
2019-03-19T14:45:26.383Z,2.20
2019-03-19T14:47:56.167Z,2.30
2019-03-19T14:50:25.951Z,2.22
2019-03-19T14:52:55.116Z,1.90
2019-03-19T14:55:24.328Z,1.67
2019-03-19T14:57:53.540Z,2.42
2019-03-19T15:00:22.970Z,2.33
2019-03-19T15:02:52.069Z,2.37
2019-03-19T15:05:21.237Z,2.60
2019-03-19T15:07:50.342Z,2.85
2019-03-19T15:10:23.146Z,2.92
2019-03-19T15:12:52.393Z,2.90
2019-03-19T15:15:21.897Z,2.67
2019-03-19T15:17:51.141Z,2.52
2019-03-19T15:20:21.810Z,3.85
2019-03-19T15:22:51.013Z,3.33
2019-03-19T15:25:20.327Z,2.10
2019-03-19T15:27:49.451Z,2.60
2019-03-19T15:30:21.570Z,2.52
2019-03-19T15:32:50.774Z,2.62
2019-03-19T15:35:19.965Z,2.27
2019-03-19T15:37:49.034Z,1.75
2019-03-19T15:40:18.668Z,2.05
2019-03-19T15:42:51.119Z,2.42
2019-03-19T15:45:26.833Z,1.98
2019-03-19T15:47:58.338Z,1.95
2019-03-19T15:50:27.481Z,2.05
2019-03-19T15:52:56.648Z,1.90
2019-03-19T15:55:25.781Z,2.33
2019-03-19T15:57:55.014Z,1.60
2019-03-19T16:00:24.209Z,1.80
2019-03-19T16:02:53.411Z,2.08
2019-03-19T16:05:22.476Z,1.98
2019-03-19T16:07:51.991Z,2.10
2019-03-19T16:10:21.131Z,1.87
2019-03-19T16:12:50.465Z,1.70
2019-03-19T16:15:24.353Z,1.62
2019-03-19T16:17:53.550Z,1.80
2019-03-19T16:20:22.837Z,1.62
2019-03-19T16:22:51.906Z,1.65
2019-03-19T16:25:21.133Z,1.90
2019-03-19T16:27:50.241Z,1.75
2019-03-19T16:30:19.751Z,1.77
2019-03-19T16:32:48.877Z,1.45
2019-03-19T16:35:18.018Z,1.80
2019-03-19T16:37:47.158Z,2.08
2019-03-19T16:40:17.863Z,1.85
2019-03-19T16:42:47.019Z,1.37
2019-03-19T16:45:18.099Z,1.82
2019-03-19T16:47:46.964Z,1.77
2019-03-19T16:50:19.656Z,1.98
2019-03-19T16:52:48.980Z,1.90
2019-03-19T16:55:18.684Z,1.92
2019-03-19T16:57:47.861Z,2.33
2019-03-19T17:00:17.851Z,2.02
2019-03-19T17:02:47.058Z,1.77
2019-03-19T17:05:17.075Z,1.57
2019-03-19T17:07:51.987Z,2.10
2019-03-19T17:10:23.858Z,1.55
2019-03-19T17:12:53.306Z,1.70
2019-03-19T17:15:22.377Z,2.05
2019-03-19T17:17:51.621Z,2.02
2019-03-19T17:20:20.822Z,1.70
2019-03-19T17:22:50.056Z,2.10
2019-03-19T17:25:23.339Z,2.42
2019-03-19T17:27:52.477Z,2.12
2019-03-19T17:30:25.793Z,1.98
2019-03-19T17:32:54.970Z,2.08
2019-03-19T17:35:24.090Z,2.40
2019-03-19T17:37:53.251Z,2.75
2019-03-19T17:40:22.468Z,2.12
2019-03-19T17:42:51.590Z,3.15
2019-03-19T17:45:20.812Z,2.50
2019-03-19T17:47:50.931Z,2.20
2019-03-19T17:50:26.978Z,2.55
2019-03-19T17:52:56.365Z,2.80
2019-03-19T17:55:25.620Z,2.27
2019-03-19T17:57:54.809Z,3.08
2019-03-19T18:00:28.813Z,2.80
2019-03-19T18:02:58.149Z,3.10
2019-03-19T18:05:29.194Z,2.60
2019-03-19T18:07:59.535Z,2.40
2019-03-19T18:10:28.681Z,2.75
2019-03-19T18:12:58.020Z,2.42
2019-03-19T18:15:27.073Z,2.00
2019-03-19T18:17:56.302Z,2.70
2019-03-19T18:20:25.524Z,2.15
2019-03-19T18:22:54.698Z,2.20
2019-03-19T18:25:23.856Z,2.58
2019-03-19T18:27:53.154Z,2.55
2019-03-19T18:30:22.598Z,2.35
2019-03-19T18:32:51.731Z,2.27
2019-03-19T18:35:20.867Z,2.40
2019-03-19T18:37:50.002Z,2.67
2019-03-19T18:40:19.649Z,3.08
2019-03-19T18:42:48.754Z,2.72
2019-03-19T18:45:19.838Z,2.35
2019-03-19T18:47:48.989Z,2.55
2019-03-19T18:50:21.310Z,3.20
2019-03-19T18:52:51.508Z,3.35
2019-03-19T18:55:20.725Z,3.17
2019-03-19T18:57:49.877Z,3.62
2019-03-19T19:00:19.308Z,3.77
2019-03-19T19:02:50.846Z,4.45
2019-03-19T19:05:19.855Z,4.17
2019-03-19T19:07:48.996Z,4.10
2019-03-19T19:10:20.899Z,4.37
2019-03-19T19:12:49.092Z,4.42
2019-03-19T19:15:21.514Z,3.95
2019-03-19T19:17:50.734Z,4.47
2019-03-19T19:20:19.856Z,3.75
2019-03-19T19:22:49.094Z,4.97
2019-03-19T19:25:21.426Z,4.58
2019-03-19T19:27:50.564Z,5.47
2019-03-19T19:30:24.466Z,5.00
2019-03-19T19:33:01.369Z,5.45
2019-03-19T19:35:24.348Z,4.95
2019-03-19T19:37:55.770Z,5.08
2019-03-19T19:40:25.083Z,4.40
2019-03-19T19:42:54.493Z,3.95
2019-03-19T19:45:23.690Z,4.85
2019-03-19T19:47:53.984Z,4.28
2019-03-19T19:50:23.480Z,4.28
2019-03-19T19:52:54.548Z,4.62
2019-03-19T19:55:23.869Z,4.42
2019-03-19T19:57:53.012Z,4.55
2019-03-19T20:00:24.062Z,4.70
2019-03-19T20:02:54.825Z,4.20
2019-03-19T20:05:23.881Z,4.53
2019-03-19T20:07:53.011Z,4.58
2019-03-19T20:10:28.194Z,4.03
2019-03-19T20:12:57.404Z,4.00
2019-03-19T20:15:26.577Z,4.62
2019-03-19T20:17:55.686Z,3.90
2019-03-19T20:20:26.439Z,3.27
2019-03-19T20:22:55.644Z,3.17
2019-03-19T20:25:24.845Z,4.10
2019-03-19T20:27:54.003Z,4.47
2019-03-19T20:30:24.930Z,3.98
2019-03-19T20:32:54.146Z,3.00
2019-03-19T20:35:23.304Z,3.42
2019-03-19T20:37:52.433Z,2.87
2019-03-19T20:40:21.649Z,3.35
2019-03-19T20:42:50.793Z,2.52
2019-03-19T20:45:21.472Z,2.77
2019-03-19T20:47:50.675Z,3.15
2019-03-19T20:50:29.515Z,2.62
2019-03-19T20:52:58.653Z,2.83
2019-03-19T20:55:27.811Z,3.58
2019-03-19T20:57:56.927Z,3.42
2019-03-19T21:00:27.238Z,3.37
2019-03-19T21:02:56.473Z,3.22
2019-03-19T21:05:25.574Z,3.33
2019-03-19T21:07:54.732Z,3.20
2019-03-19T21:10:24.256Z,3.10
2019-03-19T21:12:53.465Z,3.45
2019-03-19T21:15:26.422Z,3.80
2019-03-19T21:17:55.558Z,5.50
2019-03-19T21:20:24.742Z,5.47
2019-03-19T21:22:54.065Z,6.10
2019-03-19T21:25:23.207Z,6.47
2019-03-19T21:27:52.366Z,5.62
2019-03-19T21:30:22.988Z,6.53
2019-03-19T21:32:52.210Z,6.78
2019-03-19T21:35:21.941Z,6.47
2019-03-19T21:37:51.145Z,6.92
2019-03-19T21:40:20.364Z,5.65
2019-03-19T21:42:49.493Z,5.35
2019-03-19T21:45:19.302Z,6.28
2019-03-19T21:47:48.469Z,4.95
2019-03-19T21:50:21.359Z,5.97
2019-03-19T21:52:50.430Z,5.97
2019-03-19T21:55:19.662Z,6.78
2019-03-19T21:57:48.887Z,5.15
2019-03-19T22:00:19.614Z,5.10
2019-03-19T22:02:48.846Z,4.55
2019-03-19T22:05:18.012Z,4.72
2019-03-19T22:07:47.240Z,5.28
2019-03-19T22:10:17.185Z,5.53
2019-03-19T22:12:48.886Z,6.12
2019-03-19T22:15:18.719Z,6.15
2019-03-19T22:17:47.916Z,5.80
2019-03-19T22:20:17.064Z,6.42
2019-03-19T22:22:46.232Z,5.47
2019-03-19T22:25:15.634Z,6.08
2019-03-19T22:27:44.869Z,6.33
2019-03-19T22:30:15.537Z,7.85
2019-03-19T22:32:44.689Z,7.75
2019-03-19T22:35:13.896Z,7.40
2019-03-19T22:37:43.029Z,6.87
2019-03-19T22:40:16.493Z,7.15
2019-03-19T22:42:45.679Z,6.30
2019-03-19T22:45:15.226Z,5.75
2019-03-19T22:47:44.465Z,6.85
2019-03-19T22:50:16.900Z,5.75
2019-03-19T22:52:46.115Z,5.10
2019-03-19T22:55:15.473Z,5.50
2019-03-19T22:57:44.589Z,5.78
2019-03-19T23:00:15.390Z,5.20
2019-03-19T23:02:46.148Z,5.67
2019-03-19T23:05:16.562Z,5.62
2019-03-19T23:07:45.759Z,5.62
2019-03-19T23:10:14.902Z,4.83
2019-03-19T23:12:44.046Z,4.62
2019-03-19T23:15:13.354Z,5.45
2019-03-19T23:17:42.642Z,5.10
2019-03-19T23:20:12.459Z,4.70
2019-03-19T23:22:41.599Z,4.97
2019-03-19T23:25:10.922Z,4.97
2019-03-19T23:27:40.133Z,4.37
2019-03-19T23:30:10.789Z,4.00
2019-03-19T23:32:40.016Z,4.60
2019-03-19T23:35:09.202Z,4.50
2019-03-19T23:37:38.421Z,4.87
2019-03-19T23:40:09.076Z,4.33
2019-03-19T23:42:38.284Z,4.65
2019-03-19T23:45:10.840Z,3.42
2019-03-19T23:47:39.926Z,4.22
2019-03-19T23:50:14.500Z,4.15
2019-03-19T23:52:44.721Z,3.90
2019-03-19T23:55:13.898Z,4.80
2019-03-19T23:57:43.153Z,4.72
